createdAt,value
2023-04-13T00:00:12.916Z,6.20
2023-04-13T00:02:15.608Z,6.20
2023-04-13T00:04:18.186Z,6.20
2023-04-13T00:06:22.288Z,6.30
2023-04-13T00:08:24.735Z,6.30
2023-04-13T00:10:27.265Z,6.30
2023-04-13T00:12:30.152Z,6.20
2023-04-13T00:14:33.350Z,6.20
2023-04-13T00:16:35.846Z,6.30
2023-04-13T00:18:39.400Z,6.30
2023-04-13T00:20:42.901Z,6.30
2023-04-13T00:22:46.213Z,6.30
2023-04-13T00:24:48.718Z,6.40
2023-04-13T00:26:53.233Z,6.40
2023-04-13T00:28:55.727Z,6.50
2023-04-13T00:30:58.463Z,6.50
2023-04-13T00:33:02.037Z,6.50
2023-04-13T00:35:05.593Z,6.60
2023-04-13T00:37:08.177Z,6.60
2023-04-13T00:39:10.789Z,6.60
2023-04-13T00:41:13.604Z,6.70
2023-04-13T00:43:16.991Z,6.70
2023-04-13T00:45:19.848Z,6.70
2023-04-13T00:47:25.764Z,6.90
2023-04-13T00:49:28.836Z,6.90
2023-04-13T00:51:32.747Z,6.90
2023-04-13T00:53:35.760Z,6.90
2023-04-13T00:55:39.952Z,6.90
2023-04-13T00:57:42.447Z,7.00
2023-04-13T00:59:45.121Z,7.10
2023-04-13T01:01:49.815Z,7.20
2023-04-13T01:03:54.443Z,7.20
2023-04-13T01:05:59.080Z,7.30
2023-04-13T01:08:06.053Z,7.20
2023-04-13T01:10:09.927Z,7.30
2023-04-13T01:12:14.333Z,7.30
2023-04-13T01:14:18.875Z,7.30
2023-04-13T01:16:23.757Z,7.40
2023-04-13T01:18:27.856Z,7.50
2023-04-13T01:20:31.903Z,7.40
2023-04-13T01:22:36.304Z,7.40
2023-04-13T01:24:41.328Z,7.30
2023-04-13T01:26:45.691Z,7.20
2023-04-13T01:28:48.495Z,7.10
2023-04-13T01:30:52.485Z,7.10
2023-04-13T01:32:55.407Z,7.00
2023-04-13T01:34:59.204Z,7.00
2023-04-13T01:37:03.941Z,6.90
2023-04-13T01:39:06.842Z,6.90
2023-04-13T01:41:10.236Z,7.00
2023-04-13T01:43:15.209Z,7.00
2023-04-13T01:45:21.383Z,7.00
2023-04-13T01:47:25.125Z,7.00
2023-04-13T01:49:30.643Z,7.00
2023-04-13T01:51:35.749Z,7.10
2023-04-13T01:53:42.408Z,7.10
2023-04-13T01:55:48.463Z,7.10
2023-04-13T01:57:51.866Z,7.10
2023-04-13T01:59:54.638Z,7.10
2023-04-13T02:01:58.151Z,7.10
2023-04-13T02:04:02.189Z,7.10
2023-04-13T02:06:07.385Z,7.10
2023-04-13T02:08:11.149Z,7.10
2023-04-13T02:10:15.734Z,7.30
2023-04-13T02:12:18.301Z,7.20
2023-04-13T02:14:21.091Z,7.20
2023-04-13T02:16:24.678Z,7.20
2023-04-13T02:18:27.277Z,7.30
2023-04-13T02:20:32.286Z,7.20
2023-04-13T02:22:34.859Z,7.20
2023-04-13T02:24:37.950Z,7.20
2023-04-13T02:26:41.043Z,7.20
2023-04-13T02:28:43.614Z,7.20
2023-04-13T02:30:46.902Z,7.20
2023-04-13T02:32:49.594Z,7.20
2023-04-13T02:34:52.968Z,7.20
2023-04-13T02:36:55.621Z,7.20
2023-04-13T02:38:58.129Z,7.30
2023-04-13T02:41:02.792Z,7.30
2023-04-13T02:43:05.347Z,7.20
2023-04-13T02:45:11.478Z,7.20
2023-04-13T02:47:14.280Z,7.20
2023-04-13T02:49:16.893Z,7.30
2023-04-13T02:51:21.496Z,7.30
2023-04-13T02:53:24.722Z,7.20
2023-04-13T02:55:28.834Z,7.30
2023-04-13T02:57:33.654Z,7.30
2023-04-13T02:59:36.615Z,7.30
2023-04-13T03:01:41.616Z,7.30
2023-04-13T03:03:45.235Z,7.40
2023-04-13T03:05:49.753Z,7.40
2023-04-13T03:07:54.739Z,7.40
2023-04-13T03:09:57.399Z,7.40
2023-04-13T03:12:00.012Z,7.50
2023-04-13T03:14:02.685Z,7.60
2023-04-13T03:16:06.976Z,7.60
2023-04-13T03:18:09.536Z,7.60
2023-04-13T03:20:14.569Z,7.70
2023-04-13T03:22:19.187Z,7.70
2023-04-13T03:24:21.960Z,7.70
2023-04-13T03:26:24.761Z,7.80
2023-04-13T03:28:27.585Z,7.70
2023-04-13T03:30:30.144Z,7.70
2023-04-13T03:32:34.649Z,7.70
2023-04-13T03:34:39.129Z,7.70
2023-04-13T03:36:43.499Z,7.70
2023-04-13T03:38:46.338Z,7.70
2023-04-13T03:40:49.901Z,7.70
2023-04-13T03:42:52.582Z,7.80
2023-04-13T03:44:56.979Z,7.80
2023-04-13T03:47:00.609Z,7.80
2023-04-13T03:49:06.544Z,7.80
2023-04-13T03:51:09.262Z,7.70
2023-04-13T03:53:14.375Z,7.70
2023-04-13T03:55:18.841Z,7.70
2023-04-13T03:57:23.356Z,7.70
2023-04-13T03:59:26.072Z,7.60
2023-04-13T04:01:28.618Z,7.50
2023-04-13T04:03:31.270Z,7.50
2023-04-13T04:05:36.010Z,7.40
2023-04-13T04:07:39.693Z,7.50
2023-04-13T04:09:42.671Z,7.50
2023-04-13T04:11:45.718Z,7.40
2023-04-13T04:13:49.484Z,7.40
2023-04-13T04:15:52.118Z,7.40
2023-04-13T04:17:54.832Z,7.50
2023-04-13T04:19:57.493Z,7.40
2023-04-13T04:22:03.517Z,7.50
2023-04-13T04:24:08.306Z,7.50
2023-04-13T04:26:13.209Z,7.50
2023-04-13T04:28:17.712Z,7.50
2023-04-13T04:30:21.508Z,7.60
2023-04-13T04:32:24.440Z,7.60
2023-04-13T04:34:27.714Z,7.60
2023-04-13T04:36:30.629Z,7.60
2023-04-13T04:38:34.948Z,7.60
2023-04-13T04:40:41.120Z,7.60
2023-04-13T04:42:43.712Z,7.60
2023-04-13T04:44:49.589Z,7.60
2023-04-13T04:46:53.448Z,7.60
2023-04-13T04:48:57.827Z,7.60
2023-04-13T04:51:00.724Z,7.60
2023-04-13T04:53:05.114Z,7.60
2023-04-13T04:55:08.582Z,7.60
2023-04-13T04:57:11.761Z,7.50
2023-04-13T04:59:14.701Z,7.40
2023-04-13T05:01:21.306Z,7.50
2023-04-13T05:03:24.333Z,7.50
2023-04-13T05:05:29.632Z,7.50
2023-04-13T05:07:33.232Z,7.50
2023-04-13T05:09:36.923Z,7.40
2023-04-13T05:11:39.515Z,7.50
2023-04-13T05:13:43.519Z,7.50
2023-04-13T05:15:47.924Z,7.40
2023-04-13T05:17:53.379Z,7.40
2023-04-13T05:19:56.876Z,7.40
2023-04-13T05:22:01.544Z,7.40
2023-04-13T05:24:06.414Z,7.40
2023-04-13T05:26:10.808Z,7.40
2023-04-13T05:28:13.636Z,7.40
2023-04-13T05:30:17.032Z,7.40
2023-04-13T05:32:20.276Z,7.30
2023-04-13T05:34:23.745Z,7.30
2023-04-13T05:36:28.815Z,7.30
2023-04-13T05:38:32.576Z,7.20
2023-04-13T05:40:35.386Z,7.30
2023-04-13T05:42:38.305Z,7.30
2023-04-13T05:44:40.989Z,7.30
2023-04-13T05:46:43.625Z,7.30
2023-04-13T05:48:46.177Z,7.20
2023-04-13T05:50:49.574Z,7.20
2023-04-13T05:52:52.368Z,7.20
2023-04-13T05:54:55.556Z,7.10
2023-04-13T05:56:59.235Z,7.10
2023-04-13T05:59:02.760Z,7.20
2023-04-13T06:01:07.516Z,7.30
2023-04-13T06:03:10.722Z,7.30
2023-04-13T06:05:13.893Z,7.40
2023-04-13T06:07:17.207Z,7.40
2023-04-13T06:09:19.787Z,7.50
2023-04-13T06:11:22.385Z,7.50
2023-04-13T06:13:25.440Z,7.50
2023-04-13T06:15:27.989Z,7.50
2023-04-13T06:17:30.863Z,7.60
2023-04-13T06:19:33.485Z,7.50
2023-04-13T06:21:36.068Z,7.60
2023-04-13T06:23:38.658Z,7.70
2023-04-13T06:25:44.370Z,7.70
2023-04-13T06:27:49.034Z,7.80
2023-04-13T06:29:51.826Z,7.70
2023-04-13T06:31:54.399Z,7.70
2023-04-13T06:33:57.056Z,7.80
2023-04-13T06:36:01.946Z,7.90
2023-04-13T06:38:05.485Z,7.90
2023-04-13T06:40:11.574Z,8.00
2023-04-13T06:42:16.127Z,8.00
2023-04-13T06:44:20.523Z,8.00
2023-04-13T06:46:24.977Z,8.00
2023-04-13T06:48:28.350Z,8.10
2023-04-13T06:50:32.902Z,8.20
2023-04-13T06:52:37.361Z,8.20
2023-04-13T06:54:39.966Z,8.20
2023-04-13T06:56:44.527Z,8.20
2023-04-13T06:58:47.216Z,8.30
2023-04-13T07:00:50.840Z,8.40
2023-04-13T07:02:53.710Z,8.40
2023-04-13T07:04:56.970Z,8.50
2023-04-13T07:06:59.731Z,8.50
2023-04-13T07:09:02.341Z,8.50
2023-04-13T07:11:06.290Z,8.60
2023-04-13T07:13:10.705Z,8.70
2023-04-13T07:15:13.202Z,8.70
2023-04-13T07:17:16.398Z,8.70
2023-04-13T07:19:20.854Z,8.70
2023-04-13T07:21:23.644Z,8.80
2023-04-13T07:23:28.022Z,8.90
2023-04-13T07:25:30.804Z,9.10
2023-04-13T07:27:33.596Z,9.20
2023-04-13T07:29:36.358Z,9.30
2023-04-13T07:31:40.743Z,9.30
2023-04-13T07:33:43.398Z,9.30
2023-04-13T07:35:46.309Z,9.30
2023-04-13T07:37:50.644Z,9.30
2023-04-13T07:39:55.034Z,9.30
2023-04-13T07:41:59.095Z,9.30
2023-04-13T07:44:04.476Z,9.30
2023-04-13T07:46:12.033Z,9.30
2023-04-13T07:48:15.578Z,9.40
2023-04-13T07:50:18.274Z,9.50
2023-04-13T07:52:21.367Z,9.40
2023-04-13T07:54:24.077Z,9.40
2023-04-13T07:56:27.038Z,9.30
2023-04-13T07:58:29.966Z,9.40
2023-04-13T08:00:32.877Z,9.40
2023-04-13T08:02:36.197Z,9.40
2023-04-13T08:04:40.761Z,9.50
2023-04-13T08:06:43.855Z,9.60
2023-04-13T08:08:46.527Z,9.60
2023-04-13T08:10:49.276Z,9.70
2023-04-13T08:12:51.871Z,9.80
2023-04-13T08:14:54.664Z,9.80
2023-04-13T08:16:57.606Z,9.90
2023-04-13T08:19:01.452Z,10.10
2023-04-13T08:21:10.342Z,10.30
2023-04-13T08:23:13.923Z,10.40
2023-04-13T08:25:16.859Z,10.40
2023-04-13T08:27:19.579Z,10.50
2023-04-13T08:29:23.447Z,10.60
2023-04-13T08:31:26.490Z,10.60
2023-04-13T08:33:31.249Z,10.70
2023-04-13T08:35:35.499Z,10.80
2023-04-13T08:37:38.968Z,10.80
2023-04-13T08:39:42.572Z,10.90
2023-04-13T08:41:45.886Z,11.10
2023-04-13T08:43:49.976Z,11.10
2023-04-13T08:45:52.780Z,11.10
2023-04-13T08:47:56.173Z,11.00
2023-04-13T08:49:59.874Z,11.00
2023-04-13T08:52:05.434Z,10.90
2023-04-13T08:54:08.202Z,10.70
2023-04-13T08:56:13.889Z,10.60
2023-04-13T08:58:19.140Z,10.40
2023-04-13T09:00:23.282Z,10.20
2023-04-13T09:02:27.913Z,10.10
2023-04-13T09:04:34.601Z,10.10
2023-04-13T09:06:39.308Z,10.20
2023-04-13T09:08:44.766Z,10.30
2023-04-13T09:10:47.469Z,10.20
2023-04-13T09:12:50.435Z,10.20
2023-04-13T09:14:53.152Z,10.10
2023-04-13T09:16:56.262Z,10.10
2023-04-13T09:19:00.866Z,10.10
2023-04-13T09:21:03.776Z,10.00
2023-04-13T09:23:13.915Z,10.00
2023-04-13T09:25:23.378Z,10.00
2023-04-13T09:27:25.927Z,10.00
2023-04-13T09:29:28.643Z,10.00
2023-04-13T09:31:34.050Z,9.90
2023-04-13T09:33:44.979Z,9.90
2023-04-13T09:35:47.446Z,9.90
2023-04-13T09:37:51.794Z,9.80
2023-04-13T09:39:54.358Z,9.80
2023-04-13T09:41:57.482Z,9.70
2023-04-13T09:44:00.129Z,9.70
2023-04-13T09:46:02.654Z,9.60
2023-04-13T09:48:06.139Z,9.80
2023-04-13T09:50:18.110Z,9.90
2023-04-13T09:52:22.162Z,10.00
2023-04-13T09:54:24.861Z,10.00
2023-04-13T09:56:28.417Z,10.10
2023-04-13T09:58:31.457Z,10.00
2023-04-13T10:00:34.051Z,10.10
2023-04-13T10:02:38.536Z,10.10
2023-04-13T10:04:41.228Z,10.10
2023-04-13T10:06:44.263Z,10.10
2023-04-13T10:08:46.717Z,10.20
2023-04-13T10:10:49.828Z,10.00
2023-04-13T10:12:53.998Z,9.90
2023-04-13T10:14:58.447Z,9.90
2023-04-13T10:17:07.060Z,10.10
2023-04-13T10:19:11.235Z,10.30
2023-04-13T10:21:14.944Z,10.70
2023-04-13T10:23:17.820Z,10.80
2023-04-13T10:25:32.058Z,10.70
2023-04-13T10:27:26.509Z,10.50
2023-04-13T10:29:29.198Z,10.60
2023-04-13T10:31:41.283Z,11.00
2023-04-13T10:33:49.997Z,11.20
2023-04-13T10:35:56.924Z,11.20
2023-04-13T10:37:59.400Z,11.30
2023-04-13T10:40:05.572Z,11.40
2023-04-13T10:42:12.281Z,11.30
2023-04-13T10:44:14.851Z,11.40
2023-04-13T10:46:17.352Z,11.30
2023-04-13T10:48:21.143Z,11.30
2023-04-13T10:50:24.387Z,11.20
2023-04-13T10:52:27.674Z,11.20
2023-04-13T10:54:30.287Z,11.20
2023-04-13T10:56:33.233Z,11.30
2023-04-13T10:58:35.757Z,11.10
2023-04-13T11:00:46.466Z,11.10
2023-04-13T11:02:43.765Z,11.10
2023-04-13T11:04:47.397Z,11.10
2023-04-13T11:06:51.922Z,11.10
2023-04-13T11:09:01.056Z,11.00
2023-04-13T11:11:03.520Z,11.00
2023-04-13T11:13:06.116Z,10.90
2023-04-13T11:15:09.234Z,10.90
2023-04-13T11:17:14.304Z,10.90
2023-04-13T11:19:16.979Z,11.00
2023-04-13T11:21:19.505Z,10.90
2023-04-13T11:23:23.429Z,11.00
2023-04-13T11:25:26.336Z,10.90
2023-04-13T11:27:30.223Z,11.00
2023-04-13T11:29:32.693Z,11.10
2023-04-13T11:31:36.708Z,11.20
2023-04-13T11:33:40.458Z,11.20
2023-04-13T11:35:49.739Z,11.20
2023-04-13T11:37:50.468Z,11.10
2023-04-13T11:39:52.926Z,10.90
2023-04-13T11:41:56.512Z,10.90
2023-04-13T11:44:01.345Z,11.00
2023-04-13T11:46:04.038Z,11.10
2023-04-13T11:48:07.672Z,11.00
2023-04-13T11:50:11.263Z,11.00
2023-04-13T11:52:14.948Z,11.20
2023-04-13T11:54:18.551Z,11.30
2023-04-13T11:56:21.350Z,11.40
2023-04-13T11:58:23.911Z,11.60
2023-04-13T12:00:27.528Z,11.60
2023-04-13T12:02:33.399Z,11.80
2023-04-13T12:04:40.207Z,12.10
2023-04-13T12:06:44.880Z,12.40
2023-04-13T12:08:52.559Z,12.40
2023-04-13T12:11:20.111Z,12.30
2023-04-13T12:13:17.610Z,12.40
2023-04-13T12:15:25.221Z,12.30
2023-04-13T12:17:35.425Z,12.30
2023-04-13T12:19:23.259Z,12.10
2023-04-13T12:21:26.818Z,12.10
2023-04-13T12:23:29.503Z,11.90
2023-04-13T12:25:35.871Z,12.00
2023-04-13T12:27:40.361Z,12.10
2023-04-13T12:29:42.969Z,12.00
2023-04-13T12:31:46.969Z,11.90
2023-04-13T12:33:50.906Z,11.90
2023-04-13T12:35:53.403Z,11.40
2023-04-13T12:37:56.204Z,11.80
2023-04-13T12:39:58.688Z,11.70
2023-04-13T12:42:02.252Z,11.80
2023-04-13T12:44:04.908Z,11.90
2023-04-13T12:46:07.512Z,11.90
2023-04-13T12:48:10.169Z,11.80
2023-04-13T12:50:13.055Z,11.80
2023-04-13T12:52:15.527Z,11.70
2023-04-13T12:54:18.069Z,11.90
2023-04-13T12:56:20.605Z,12.20
2023-04-13T12:58:23.075Z,12.30
2023-04-13T13:00:25.851Z,12.40
2023-04-13T13:02:30.246Z,12.40
2023-04-13T13:04:32.885Z,12.40
2023-04-13T13:06:35.364Z,12.50
2023-04-13T13:08:40.438Z,12.50
2023-04-13T13:10:43.147Z,12.50
2023-04-13T13:12:46.257Z,12.70
2023-04-13T13:14:48.742Z,12.70
2023-04-13T13:16:51.277Z,13.00
2023-04-13T13:18:53.830Z,13.30
2023-04-13T13:20:56.336Z,13.40
2023-04-13T13:22:58.814Z,13.40
2023-04-13T13:25:01.471Z,13.20
2023-04-13T13:27:37.313Z,13.10
2023-04-13T13:29:09.069Z,13.00
2023-04-13T13:31:12.210Z,12.80
2023-04-13T13:33:15.176Z,12.60
2023-04-13T13:35:17.749Z,12.60
2023-04-13T13:37:20.188Z,12.50
2023-04-13T13:39:23.094Z,12.50
2023-04-13T13:41:25.800Z,12.40
2023-04-13T13:43:28.252Z,12.30
2023-04-13T13:45:30.742Z,12.40
2023-04-13T13:47:35.546Z,12.40
2023-04-13T13:49:38.693Z,12.40
2023-04-13T13:51:43.086Z,12.40
2023-04-13T13:53:46.897Z,12.40
2023-04-13T13:55:50.304Z,12.40
2023-04-13T13:57:53.092Z,12.40
2023-04-13T13:59:55.563Z,12.40
2023-04-13T14:01:59.176Z,12.50
2023-04-13T14:04:01.982Z,12.50
2023-04-13T14:06:05.320Z,12.60
2023-04-13T14:08:08.268Z,12.70
2023-04-13T14:10:11.150Z,12.70
2023-04-13T14:12:13.619Z,12.80
2023-04-13T14:14:21.764Z,12.90
2023-04-13T14:16:21.868Z,12.90
2023-04-13T14:18:24.474Z,12.80
2023-04-13T14:20:27.181Z,12.70
2023-04-13T14:22:29.692Z,12.80
2023-04-13T14:24:32.172Z,12.90
2023-04-13T14:26:37.226Z,13.00
2023-04-13T14:28:39.719Z,13.00
2023-04-13T14:30:42.223Z,13.20
2023-04-13T14:32:46.184Z,13.40
2023-04-13T14:34:48.760Z,13.60
2023-04-13T14:36:53.739Z,13.60
2023-04-13T14:38:55.780Z,13.70
2023-04-13T14:40:58.327Z,13.70
2023-04-13T14:43:00.872Z,13.90
2023-04-13T14:45:04.796Z,13.80
2023-04-13T14:47:09.531Z,13.80
2023-04-13T14:49:12.251Z,13.90
2023-04-13T14:51:16.291Z,13.80
2023-04-13T14:53:18.789Z,13.90
2023-04-13T14:55:22.214Z,14.00
2023-04-13T14:57:24.835Z,14.20
2023-04-13T14:59:27.477Z,14.10
2023-04-13T15:01:30.011Z,14.10
2023-04-13T15:03:32.960Z,13.80
2023-04-13T15:05:38.735Z,13.70
2023-04-13T15:07:42.680Z,13.60
2023-04-13T15:09:45.159Z,13.90
2023-04-13T15:11:48.555Z,14.20
2023-04-13T15:13:51.190Z,14.30
2023-04-13T15:15:54.252Z,14.50
2023-04-13T15:17:56.958Z,14.20
2023-04-13T15:20:00.667Z,13.90
2023-04-13T15:22:03.165Z,13.70
2023-04-13T15:24:07.099Z,13.50
2023-04-13T15:26:11.381Z,13.30
2023-04-13T15:28:13.884Z,13.40
2023-04-13T15:30:18.547Z,13.60
2023-04-13T15:32:21.232Z,13.70
2023-04-13T15:34:23.824Z,13.70
2023-04-13T15:36:27.184Z,13.50
2023-04-13T15:38:30.048Z,13.30
2023-04-13T15:40:33.536Z,13.30
2023-04-13T15:42:36.003Z,13.20
2023-04-13T15:44:38.507Z,13.30
2023-04-13T15:46:40.973Z,13.50
2023-04-13T15:48:43.553Z,13.80
2023-04-13T15:50:46.157Z,14.20
2023-04-13T15:52:48.684Z,14.50
2023-04-13T15:54:51.139Z,14.70
2023-04-13T15:56:53.645Z,14.50
2023-04-13T15:58:56.118Z,14.20
2023-04-13T16:01:02.672Z,14.10
2023-04-13T16:03:05.914Z,14.10
2023-04-13T16:05:09.107Z,14.10
2023-04-13T16:07:14.480Z,14.10
2023-04-13T16:09:16.241Z,14.20
2023-04-13T16:11:20.146Z,14.10
2023-04-13T16:13:22.820Z,14.00
2023-04-13T16:15:25.699Z,14.00
2023-04-13T16:17:31.650Z,14.20
2023-04-13T16:19:34.193Z,14.30
2023-04-13T16:21:37.336Z,14.30
2023-04-13T16:23:40.192Z,14.30
2023-04-13T16:25:42.689Z,14.40
2023-04-13T16:27:47.336Z,14.40
2023-04-13T16:29:51.429Z,14.40
2023-04-13T16:31:53.906Z,14.20
2023-04-13T16:33:56.883Z,14.10
2023-04-13T16:35:59.363Z,14.00
2023-04-13T16:38:22.781Z,14.10
2023-04-13T16:40:25.467Z,14.10
2023-04-13T16:42:27.992Z,14.10
2023-04-13T16:44:30.485Z,14.20
2023-04-13T16:46:33.119Z,14.30
2023-04-13T16:48:35.764Z,14.20
2023-04-13T16:50:38.244Z,14.00
2023-04-13T16:52:41.195Z,13.80
2023-04-13T16:54:43.681Z,13.80
2023-04-13T16:56:47.826Z,13.60
2023-04-13T16:58:50.556Z,13.60
2023-04-13T17:00:53.138Z,13.60
2023-04-13T17:02:55.855Z,13.70
2023-04-13T17:04:58.636Z,13.60
2023-04-13T17:07:01.501Z,13.60
2023-04-13T17:09:04.618Z,13.50
2023-04-13T17:11:07.892Z,13.40
2023-04-13T17:13:10.403Z,13.40
2023-04-13T17:15:12.862Z,13.30
2023-04-13T17:17:15.417Z,13.30
2023-04-13T17:19:18.395Z,13.30
2023-04-13T17:21:20.878Z,13.30
2023-04-13T17:23:23.511Z,13.20
2023-04-13T17:25:26.500Z,13.10
2023-04-13T17:27:28.958Z,13.00
2023-04-13T17:29:33.664Z,13.00
2023-04-13T17:31:36.164Z,12.70
2023-04-13T17:33:38.765Z,12.80
2023-04-13T17:35:41.435Z,12.80
2023-04-13T17:37:43.904Z,12.70
2023-04-13T17:39:46.914Z,12.50
2023-04-13T17:41:49.555Z,12.50
2023-04-13T17:43:52.019Z,12.40
2023-04-13T17:45:54.524Z,12.40
2023-04-13T17:47:57.240Z,12.40
2023-04-13T17:49:59.835Z,12.40
2023-04-13T17:52:02.387Z,12.40
2023-04-13T17:54:06.892Z,12.40
2023-04-13T17:56:14.138Z,12.50
2023-04-13T17:58:16.632Z,12.50
2023-04-13T18:00:19.825Z,12.50
2023-04-13T18:02:22.389Z,12.50
2023-04-13T18:04:25.289Z,12.50
2023-04-13T18:06:27.951Z,12.50
2023-04-13T18:08:30.593Z,12.40
2023-04-13T18:10:33.092Z,12.40
2023-04-13T18:12:35.751Z,12.30
2023-04-13T18:14:38.238Z,12.20
2023-04-13T18:16:40.738Z,12.10
2023-04-13T18:18:43.823Z,11.90
2023-04-13T18:20:47.009Z,11.70
2023-04-13T18:22:49.613Z,11.70
2023-04-13T18:24:52.129Z,11.60
2023-04-13T18:26:54.622Z,11.50
2023-04-13T18:28:57.128Z,11.50
2023-04-13T18:31:00.097Z,11.40
2023-04-13T18:33:02.934Z,11.40
2023-04-13T18:35:05.972Z,11.40
2023-04-13T18:37:08.483Z,11.20
2023-04-13T18:39:11.015Z,11.00
2023-04-13T18:41:13.519Z,10.90
2023-04-13T18:43:16.126Z,10.70
2023-04-13T18:45:18.726Z,10.60
2023-04-13T18:47:23.097Z,10.70
2023-04-13T18:49:26.443Z,10.70
2023-04-13T18:51:30.263Z,10.70
2023-04-13T18:53:32.776Z,10.70
2023-04-13T18:55:35.275Z,10.60
2023-04-13T18:57:39.304Z,10.60
2023-04-13T18:59:43.593Z,10.50
2023-04-13T19:01:46.535Z,10.30
2023-04-13T19:03:51.365Z,10.20
2023-04-13T19:05:54.058Z,10.00
2023-04-13T19:07:57.942Z,9.80
2023-04-13T19:10:00.568Z,9.70
2023-04-13T19:12:03.633Z,9.50
2023-04-13T19:14:06.245Z,9.40
2023-04-13T19:16:09.204Z,9.30
2023-04-13T19:18:11.975Z,9.20
2023-04-13T19:20:14.793Z,9.00
2023-04-13T19:22:18.732Z,8.80
2023-04-13T19:24:21.386Z,8.80
2023-04-13T19:26:24.103Z,8.70
2023-04-13T19:28:26.824Z,8.70
2023-04-13T19:30:29.424Z,8.70
2023-04-13T19:32:32.028Z,8.70
2023-04-13T19:34:34.734Z,8.70
2023-04-13T19:36:37.423Z,8.70
2023-04-13T19:38:40.605Z,8.70
2023-04-13T19:40:43.482Z,8.80
2023-04-13T19:42:46.074Z,8.80
2023-04-13T19:44:48.546Z,8.80
2023-04-13T19:46:51.104Z,8.80
2023-04-13T19:48:53.776Z,8.70
2023-04-13T19:50:56.627Z,8.50
2023-04-13T19:52:59.136Z,8.30
2023-04-13T19:55:01.630Z,8.20
2023-04-13T19:57:04.230Z,8.10
2023-04-13T19:59:07.942Z,7.90
2023-04-13T20:01:12.763Z,7.80
2023-04-13T20:03:17.349Z,7.70
2023-04-13T20:05:20.618Z,7.60
2023-04-13T20:07:23.250Z,7.50
2023-04-13T20:09:25.724Z,7.50
2023-04-13T20:11:28.590Z,7.60
2023-04-13T20:13:31.079Z,7.50
2023-04-13T20:15:34.362Z,7.60
2023-04-13T20:17:37.588Z,7.60
2023-04-13T20:19:50.436Z,7.60
2023-04-13T20:21:58.815Z,7.60
2023-04-13T20:24:24.264Z,7.60
2023-04-13T20:29:11.492Z,7.50
2023-04-13T20:31:15.222Z,7.40
2023-04-13T20:33:18.452Z,7.50
2023-04-13T20:35:21.913Z,7.40
2023-04-13T20:37:25.728Z,7.40
2023-04-13T20:39:30.672Z,7.40
2023-04-13T20:41:38.509Z,7.30
2023-04-13T20:43:41.566Z,7.30
2023-04-13T20:45:44.816Z,7.30
2023-04-13T20:47:50.147Z,7.20
2023-04-13T20:49:54.053Z,7.10
2023-04-13T20:51:57.426Z,7.10
2023-04-13T20:54:01.238Z,7.00
2023-04-13T20:56:04.578Z,7.10
2023-04-13T20:58:07.709Z,7.00
2023-04-13T21:00:14.555Z,6.90
2023-04-13T21:02:17.937Z,6.80
2023-04-13T21:04:21.473Z,6.50
2023-04-13T21:06:25.724Z,6.20
2023-04-13T21:08:30.463Z,6.10
2023-04-13T21:10:34.342Z,6.10
2023-04-13T21:12:37.600Z,6.10
2023-04-13T21:14:40.670Z,6.10
2023-04-13T21:16:44.028Z,6.20
2023-04-13T21:18:47.128Z,6.20
2023-04-13T21:20:50.235Z,6.20
2023-04-13T21:22:52.996Z,6.20
2023-04-13T21:24:57.852Z,6.10
2023-04-13T21:27:01.769Z,6.10
2023-04-13T21:29:04.607Z,6.10
2023-04-13T21:31:07.071Z,6.10
2023-04-13T21:33:09.587Z,5.90
2023-04-13T21:35:13.930Z,5.90
2023-04-13T21:37:16.409Z,5.80
2023-04-13T21:39:19.680Z,5.80
2023-04-13T21:41:22.434Z,5.70
2023-04-13T21:43:25.269Z,5.70
2023-04-13T21:45:28.110Z,5.70
2023-04-13T21:47:31.239Z,5.80
2023-04-13T21:49:34.162Z,5.70
2023-04-13T21:51:36.716Z,5.70
2023-04-13T21:53:39.278Z,5.70
2023-04-13T21:55:41.800Z,5.50
2023-04-13T21:57:44.316Z,5.50
2023-04-13T21:59:46.792Z,5.50
2023-04-13T22:01:49.383Z,5.40
2023-04-13T22:03:52.000Z,5.30
2023-04-13T22:05:54.522Z,5.30
2023-04-13T22:07:57.043Z,5.10
2023-04-13T22:09:59.822Z,5.10
2023-04-13T22:12:20.218Z,5.00
2023-04-13T22:14:48.407Z,5.10
2023-04-13T22:16:53.492Z,5.10
2023-04-13T22:18:55.998Z,5.10
2023-04-13T22:20:59.336Z,5.10
2023-04-13T22:23:01.900Z,5.10
2023-04-13T22:25:05.181Z,5.10
2023-04-13T22:27:07.656Z,5.20
2023-04-13T22:29:10.113Z,5.20
2023-04-13T22:31:12.625Z,5.20
2023-04-13T22:33:15.163Z,5.30
2023-04-13T22:35:17.853Z,5.40
2023-04-13T22:37:20.366Z,5.50
2023-04-13T22:39:22.835Z,5.70
2023-04-13T22:41:25.325Z,5.90
2023-04-13T22:43:27.802Z,6.00
2023-04-13T22:45:30.304Z,6.20
2023-04-13T22:47:33.036Z,6.20
2023-04-13T22:49:35.924Z,6.20
2023-04-13T22:51:38.908Z,6.10
2023-04-13T22:53:41.371Z,6.10
2023-04-13T22:55:43.872Z,6.10
2023-04-13T22:57:46.731Z,6.10
2023-04-13T22:59:49.175Z,6.10
2023-04-13T23:01:51.787Z,6.10
2023-04-13T23:03:54.860Z,6.00
2023-04-13T23:05:57.593Z,5.90
2023-04-13T23:08:00.182Z,5.70
2023-04-13T23:10:02.837Z,5.50
2023-04-13T23:12:05.845Z,5.40
2023-04-13T23:14:08.312Z,5.30
2023-04-13T23:16:11.067Z,5.20
2023-04-13T23:18:13.598Z,5.10
2023-04-13T23:20:16.240Z,5.10
2023-04-13T23:22:18.744Z,5.00
2023-04-13T23:24:21.219Z,4.90
2023-04-13T23:26:23.733Z,4.80
2023-04-13T23:28:26.191Z,4.80
2023-04-13T23:30:28.704Z,4.80
2023-04-13T23:32:31.202Z,4.80
2023-04-13T23:34:33.786Z,4.70
2023-04-13T23:36:36.394Z,4.70
2023-04-13T23:38:38.909Z,4.80
2023-04-13T23:40:41.486Z,4.80
2023-04-13T23:42:43.952Z,4.80
2023-04-13T23:44:46.485Z,4.80
2023-04-13T23:46:49.477Z,4.80
2023-04-13T23:48:51.943Z,4.80
2023-04-13T23:50:54.826Z,4.80
2023-04-13T23:52:58.241Z,4.80
2023-04-13T23:55:00.724Z,4.70
2023-04-13T23:57:03.196Z,4.70
2023-04-13T23:59:05.665Z,4.70
